EDDS Airport Information

Runway Information
Runway 07 Length 10974 ft width 148 ft Elevation 1267 ft Threshold 984 ft Heading 72
Runway 25 Length 10974 ft Width 148 ft Elevation 1181 ft Threshold N/A Heading 252
Airport Frequencies
Type ATIS Name ATIS Frequency 126.125 MHZ
Type CLD Name CLNC DEL Frequency 121.9 MHZ
Type DIR Name DIR Frequency 119.85 MHZ
Type GND Name GND Frequency 118.6 MHZ
Type INFO Name LANGEN INF Frequency 128.95 MHZ
Type MISC Name DEICING Frequency 136.825 MHZ
Type PTD Name BASE OPS P Frequency 31.8 MHZ
Type RDR Name LANGEN RAD Frequency 119.2 MHZ
Type RMP Name APRON Frequency 121.7 MHZ
Type TWR Name TWR Frequency 118.8 MHZ
Airport Navaids
Type VOR-DME Name Luburg Frequency 109200 KHZ
Type NDB Name Stuttgart Frequency 306 KHZ
Type DME Name Stuttgart Frequency 115450 KHZ
Type NDB Name Stuttgart Frequency 384 KHZ
Airport Weather Information & NOTAM
ADDS - METARS form results

(0928 UTC 28 November 2022)
Data provider http://aviationweather.gov/metar/data/
 
METAR text: EDDS 280920Z AUTO VRB02KT CAVOK 04/03 Q1013 NOSIG
Conditions at: EDDS (STUTTGART/ECHTER, DE) observed 0920 UTC 28 November 2022
Temperature: 4.0°C (39°F)
Dewpoint: 3.0°C (37°F) [RH = 93%]
Pressure (altimeter): 29.91 inches Hg (1013.0 mb)
Winds: variable direction winds at 2 MPH (2 knots; 1.0 m/s)
Visibility: 6 or more miles (10+ km)
Ceiling: ceiling and visibility are OK
Clouds: unknown
Weather: no significant weather observed at this time

METAR text: EDDS 280850Z AUTO VRB02KT CAVOK 04/02 Q1013 NOSIG
Conditions at: EDDS (STUTTGART/ECHTER, DE) observed 0850 UTC 28 November 2022
Temperature: 4.0°C (39°F)
Dewpoint: 2.0°C (36°F) [RH = 87%]
Pressure (altimeter): 29.91 inches Hg (1013.0 mb)
Winds: variable direction winds at 2 MPH (2 knots; 1.0 m/s)
Visibility: 6 or more miles (10+ km)
Ceiling: ceiling and visibility are OK
Clouds: unknown
Weather: no significant weather observed at this time

Forecast for: EDDS (STUTTGART/ECHTER, DE)
Text: TAF EDDS 280500Z 2806/2906 VRB03KT CAVOK
Forecast period: 0600 UTC 28 November 2022 to 0600 UTC 29 November 2022
Forecast type: FROM: standard forecast or significant change
Winds: variable direction winds at 3 MPH (3 knots; 1.5 m/s)
Visibility: 6 or more miles (10+ km)
Ceiling: unknown
Clouds: missing
Weather: NSW  (no significant weather)
Text: PROB40
Forecast period: 0000 to 0600 UTC 29 November 2022
Forecast type: TEMPORARY: The following changes expected for less than half the time period
Visibility: 1.24 miles (2.00 km)
Ceiling: 600 feet AGL
Clouds: broken clouds at 600 feet AGL
Weather: -RA -DZ  (light rain, light drizzle)

Virtual Trans World Airlines is not affiliated with any real-world airline. It is for flight simulation entertainment purposes only. For information on TWA, please visit the American Airlines web site.

Copyright © 2022 Virtual Trans World Airlines
Powered & Designed by vaBase.com
Privacy Policy | Contact Us